Arctic Taglu — CY8968 — position and weather

sailwx.info

Track history (hours):
 
Tides and Currents Weather Stations Pressure Air Temp Water Temp Dewpoint Dewpoint Depression Visibility Wind Speed Wind Dir Waves Ship Positions

Arctic Taglu

Last reported at 2015-Aug-02 21:33 UTC. Time now 2015-Aug-02 22:26 UTC.
Position N 49°09' W 123°02'.

Length 33 m; draft 6 m.

Type: Tug. MMSI: 316003483.

Date/timePositionNaut miles runAvg speedWind from/ knotsBaromVisibWave heightAir tempDewpointWater temp
2015-Aug-02 21:33N 49°09' W 123°02'0 0.0
2015-Aug-02 20:33N 49°09' W 123°02'0 0.0
2015-Aug-02 19:33N 49°09' W 123°02'0 0.0
2015-Aug-02 18:33N 49°09' W 123°02'0 0.0
2015-Aug-02 17:33N 49°09' W 123°02'0 0.0
2015-Aug-02 16:33N 49°09' W 123°02'0 0.0
2015-Aug-02 15:33N 49°09' W 123°02'0 0.0
2015-Aug-02 14:33N 49°09' W 123°02'0 0.0
2015-Aug-02 13:33N 49°09' W 123°02'0 0.0
2015-Aug-02 12:33N 49°09' W 123°02'0 0.0
2015-Aug-02 11:33N 49°09' W 123°02'0 0.0
2015-Aug-02 10:33N 49°09' W 123°02'0 0.0
2015-Aug-02 09:33N 49°09' W 123°02'0 0.0
2015-Aug-02 08:33N 49°09' W 123°02'0 0.0
2015-Aug-02 07:33N 49°09' W 123°02'0 0.0
2015-Aug-02 06:33N 49°09' W 123°02'0 0.0
2015-Aug-02 05:33N 49°09' W 123°02'0 0.0
2015-Aug-02 04:33N 49°09' W 123°02'0 0.0
2015-Aug-02 03:33N 49°09' W 123°02'0 0.0
2015-Aug-02 02:33N 49°09' W 123°02'0 0.0
2015-Aug-02 01:33N 49°09' W 123°02'0 0.0
2015-Aug-02 00:33N 49°09' W 123°02'0 0.0
2015-Aug-01 23:33N 49°09' W 123°02'0 0.0
2015-Aug-01 22:33N 49°09' W 123°02'0 0.0
2015-Aug-01 21:33N 49°09' W 123°02'0 0.0
2015-Aug-01 20:33N 49°09' W 123°02'0 0.0
2015-Aug-01 19:33N 49°09' W 123°02'0 0.0
2015-Aug-01 18:33N 49°09' W 123°02'0 0.0
2015-Aug-01 17:33N 49°09' W 123°02'0 0.0
2015-Aug-01 16:33N 49°09' W 123°02'2 1.5
2015-Aug-01 15:33N 49°08' W 123°04'8 7.8
2015-Aug-01 14:33N 49°07' W 123°16'6 6.3
2015-Aug-01 13:33N 49°02' W 123°21'9 8.8
2015-Aug-01 12:33N 48°53' W 123°18'9 8.6
2015-Aug-01 11:33N 48°45' W 123°22'4 3.9
2015-Aug-01 10:33N 48°41' W 123°24'3 3.2
2015-Aug-01 09:33N 48°43' W 123°21'8 8.3
2015-Aug-01 08:34N 48°52' W 123°19'10 9.9
2015-Aug-01 07:33N 49°01' W 123°20'8 8.3
2015-Aug-01 06:33N 49°07' W 123°10'5 5.4
2015-Aug-01 05:33N 49°09' W 123°02'0 0.0
2015-Aug-01 04:33N 49°09' W 123°02'0 0.0
2015-Aug-01 03:33N 49°09' W 123°02'0 0.0
2015-Aug-01 02:33N 49°09' W 123°02'0 0.0
2015-Aug-01 01:33N 49°09' W 123°02'0 0.0
2015-Aug-01 00:33N 49°09' W 123°02'0 0.0
2015-Jul-31 23:33N 49°09' W 123°02'0 0.0
2015-Jul-31 22:33N 49°09' W 123°02'0 0.0
2015-Jul-31 21:33N 49°09' W 123°02'0 0.0
2015-Jul-31 20:33N 49°09' W 123°02'0 0.0
2015-Jul-31 19:33N 49°09' W 123°02'0 0.0
2015-Jul-31 18:33N 49°09' W 123°02'0 0.0
2015-Jul-31 17:33N 49°09' W 123°02'0 0.0
2015-Jul-31 16:33N 49°09' W 123°02'5 4.9
2015-Jul-31 15:33N 49°06' W 123°09'7 6.7
2015-Jul-31 14:33N 49°06' W 123°19'9 8.8
2015-Jul-31 13:33N 48°57' W 123°19'7 6.7
2015-Jul-31 12:33N 48°50' W 123°21'9 9.1
2015-Jul-31 11:33N 48°41' W 123°24'0 0.1
2015-Jul-31 10:33N 48°41' W 123°24'4 3.5
2015-Jul-31 09:33N 48°44' W 123°21'8 8.4
2015-Jul-31 08:33N 48°52' W 123°18'10 9.9
2015-Jul-31 07:33N 49°02' W 123°21'9 9.0
2015-Jul-31 06:33N 49°07' W 123°10'5 5.5
2015-Jul-31 05:33N 49°09' W 123°02'0 0.0
2015-Jul-31 04:33N 49°09' W 123°02'0 0.0
2015-Jul-31 03:33N 49°09' W 123°02'0 0.0
2015-Jul-31 02:33N 49°09' W 123°02'0 0.0
2015-Jul-31 01:33N 49°09' W 123°02'0 0.0
2015-Jul-31 00:33N 49°09' W 123°02'0 0.0
2015-Jul-30 23:33N 49°09' W 123°02'0 0.0
2015-Jul-30 22:33N 49°09' W 123°02'0 0.0
2015-Jul-30 21:33N 49°09' W 123°02'0 0.0
2015-Jul-30 20:33N 49°09' W 123°02'0 0.0
2015-Jul-30 19:33N 49°09' W 123°02'0 0.0
2015-Jul-30 18:33N 49°09' W 123°02'0 0.0
2015-Jul-30 17:33N 49°09' W 123°02'0 0.1
2015-Jul-30 16:33N 49°09' W 123°02'6 5.7
2015-Jul-30 15:33N 49°07' W 123°11'6 5.7
2015-Jul-30 14:33N 49°06' W 123°19'9 9.3
2015-Jul-30 13:33N 48°56' W 123°19'7 6.6
2015-Jul-30 12:33N 48°50' W 123°21'9 8.9
2015-Jul-30 11:34N 48°41' W 123°24'0 0.1
2015-Jul-30 10:33N 48°41' W 123°24'5 4.9
2015-Jul-30 09:33N 48°46' W 123°21'8 7.6
2015-Jul-30 08:33N 48°53' W 123°18'1010.0
2015-Jul-30 07:33N 49°03' W 123°20'9 8.5
2015-Jul-30 06:33N 49°06' W 123°08'5 4.5
2015-Jul-30 05:33N 49°09' W 123°02'0 0.0
2015-Jul-30 04:33N 49°09' W 123°02'0 0.0
2015-Jul-30 03:33N 49°09' W 123°02'0 0.0
2015-Jul-30 02:33N 49°09' W 123°02'0 0.0
2015-Jul-30 01:33N 49°09' W 123°02'0 0.0
2015-Jul-30 00:33N 49°09' W 123°02'0 0.0
2015-Jul-29 23:33N 49°09' W 123°02'0 0.0
2015-Jul-29 22:33N 49°09' W 123°02'0 0.0
2015-Jul-29 21:33N 49°09' W 123°02'0 0.0
2015-Jul-29 20:33N 49°09' W 123°02'0 0.0
2015-Jul-29 19:33N 49°09' W 123°02'0 0.0
2015-Jul-29 18:33N 49°09' W 123°02'0 0.0
2015-Jul-29 17:33N 49°09' W 123°02'1 0.5
2015-Jul-29 16:33N 49°08' W 123°03'5 5.4
2015-Jul-29 15:33N 49°07' W 123°11'6 5.5
2015-Jul-29 14:33N 49°06' W 123°19'9 9.3
2015-Jul-29 13:33N 48°56' W 123°18'7 6.6
2015-Jul-29 12:33N 48°50' W 123°21'9 8.9
2015-Jul-29 11:34N 48°41' W 123°24'0 0.1
2015-Jul-29 10:33N 48°41' W 123°24'3 3.2
2015-Jul-29 09:33N 48°43' W 123°21'9 8.7
2015-Jul-29 08:33N 48°52' W 123°19'10 9.7
2015-Jul-29 07:33N 49°01' W 123°22'9 8.6
2015-Jul-29 06:33N 49°08' W 123°12'7 6.8
2015-Jul-29 05:33N 49°09' W 123°02'0 0.0
2015-Jul-29 04:33N 49°09' W 123°02'0 0.0
2015-Jul-29 03:33N 49°09' W 123°02'0 0.0
2015-Jul-29 02:33N 49°09' W 123°02'0 0.0
2015-Jul-29 01:33N 49°09' W 123°02'0 0.0
2015-Jul-29 00:33N 49°09' W 123°02'0 0.0
2015-Jul-28 23:33N 49°09' W 123°02'0 0.0
2015-Jul-28 22:33N 49°09' W 123°02'0 0.0
2015-Jul-28 21:33N 49°09' W 123°02'0 0.0
2015-Jul-28 20:33N 49°09' W 123°02'0 0.0
2015-Jul-28 19:33N 49°09' W 123°02'0 0.0
2015-Jul-28 18:33N 49°09' W 123°02'0 0.0
2015-Jul-28 17:33N 49°09' W 123°02'0 0.5
2015-Jul-28 16:33N 49°08' W 123°03'6 5.6
2015-Jul-28 15:33N 49°07' W 123°11'5 5.3
2015-Jul-28 14:33N 49°06' W 123°19'9 8.7
2015-Jul-28 13:33N 48°57' W 123°18'7 7.3
2015-Jul-28 12:33N 48°50' W 123°21'9 8.8
2015-Jul-28 11:33N 48°42' W 123°24'0 0.2
2015-Jul-28 10:33N 48°41' W 123°24'4 3.9
2015-Jul-28 09:33N 48°44' W 123°21'9 9.0
2015-Jul-28 08:33N 48°53' W 123°18'10 9.8
2015-Jul-28 07:33N 49°03' W 123°20'8 8.0
2015-Jul-28 06:33N 49°07' W 123°09'5 4.8
2015-Jul-28 05:33N 49°09' W 123°02'0 0.0
2015-Jul-28 04:33N 49°09' W 123°02'0 0.0
2015-Jul-28 03:33N 49°09' W 123°02'0 0.0
2015-Jul-28 02:33N 49°09' W 123°02'0 0.0
2015-Jul-28 01:33N 49°09' W 123°02'0 0.0
2015-Jul-28 00:33N 49°09' W 123°02'0 0.0
2015-Jul-27 23:34N 49°09' W 123°02'0 0.0
2015-Jul-27 22:33N 49°09' W 123°02'0 0.0
2015-Jul-27 21:33N 49°09' W 123°02'0 0.0
2015-Jul-27 20:34N 49°09' W 123°02'0 0.0
2015-Jul-27 19:33N 49°09' W 123°02'0 0.0
2015-Jul-27 18:33N 49°09' W 123°02'0 0.0
2015-Jul-27 17:33N 49°09' W 123°02'0 0.0
2015-Jul-27 16:33N 49°09' W 123°02'0 0.0
2015-Jul-27 15:33N 49°09' W 123°02'0 0.0
2015-Jul-27 14:33N 49°09' W 123°02'0 0.0
2015-Jul-27 13:33N 49°09' W 123°02'0 0.0
2015-Jul-27 12:33N 49°09' W 123°02'0 0.0
2015-Jul-27 11:33N 49°09' W 123°02'0 0.0
2015-Jul-27 10:33N 49°09' W 123°02'0 0.0
2015-Jul-27 09:33N 49°09' W 123°02'0 0.0
2015-Jul-27 08:33N 49°09' W 123°02'0 0.0
2015-Jul-27 07:33N 49°09' W 123°02'0 0.0
2015-Jul-27 06:33N 49°09' W 123°02'0 0.0
2015-Jul-27 05:33N 49°09' W 123°02'0 0.0
2015-Jul-27 04:33N 49°09' W 123°02'0 0.0
2015-Jul-27 03:33N 49°09' W 123°02'0 0.0
2015-Jul-27 02:34N 49°09' W 123°02'0 0.0
2015-Jul-27 01:33N 49°09' W 123°02'0 0.0
2015-Jul-27 00:33N 49°09' W 123°02'0 0.0
2015-Jul-26 23:33N 49°09' W 123°02'0 0.0
2015-Jul-26 22:34N 49°09' W 123°02'0 0.0
2015-Jul-26 21:33N 49°09' W 123°02'0 0.0
2015-Jul-26 20:33N 49°09' W 123°02'0 0.0
2015-Jul-26 19:33N 49°09' W 123°02'0 0.0
2015-Jul-26 18:33N 49°09' W 123°02'0 0.0
2015-Jul-26 17:33N 49°09' W 123°02'0 0.0
2015-Jul-26 16:33N 49°09' W 123°02'0 0.0
2015-Jul-26 15:34N 49°09' W 123°02'0 0.0
2015-Jul-26 14:33N 49°09' W 123°02'0 0.0
2015-Jul-26 13:33N 49°09' W 123°02'0 0.0
2015-Jul-26 12:33N 49°09' W 123°02'0 0.0
2015-Jul-26 11:33N 49°09' W 123°02'0 0.0
2015-Jul-26 10:34N 49°09' W 123°02'0 0.0
2015-Jul-26 09:33N 49°09' W 123°02'0 0.0
2015-Jul-26 08:34N 49°09' W 123°02'0 0.0
2015-Jul-26 07:33N 49°09' W 123°02'0 0.0
2015-Jul-26 06:33N 49°09' W 123°02'0 0.0
2015-Jul-26 05:34N 49°09' W 123°02'0 0.0
2015-Jul-26 04:33N 49°09' W 123°02'0 0.0
2015-Jul-26 03:33N 49°09' W 123°02'0 0.0
2015-Jul-26 02:33N 49°09' W 123°02'0 0.0
2015-Jul-26 01:33N 49°09' W 123°02'0 0.0
2015-Jul-26 00:34N 49°09' W 123°02'0 0.0
2015-Jul-25 23:33N 49°09' W 123°02'0 0.0
2015-Jul-25 22:34N 49°09' W 123°02'0 0.0
2015-Jul-25 21:34N 49°09' W 123°02'0 0.0
2015-Jul-25 20:34N 49°09' W 123°02'0 0.0
2015-Jul-25 19:33N 49°09' W 123°02'0 0.0
2015-Jul-25 18:33N 49°09' W 123°02'0 0.0
2015-Jul-25 17:34N 49°09' W 123°02'0 0.0
2015-Jul-25 16:34N 49°09' W 123°02'6 6.0
2015-Jul-25 15:34N 49°07' W 123°11'6 6.1
2015-Jul-25 14:33N 49°05' W 123°20'9 9.5
2015-Jul-25 13:33N 48°55' W 123°18'8 7.7
2015-Jul-25 12:33N 48°48' W 123°21'7 6.9
2015-Jul-25 11:33N 48°41' W 123°24'0 0.0
2015-Jul-25 10:33N 48°41' W 123°24'6 5.5
2015-Jul-25 09:33N 48°46' W 123°21'9 9.1
2015-Jul-25 08:34N 48°55' W 123°18'10 9.9
2015-Jul-25 07:33N 49°05' W 123°20'9 9.0
2015-Jul-25 06:33N 49°07' W 123°06'3 3.4
2015-Jul-25 05:33N 49°09' W 123°02'0 0.0
2015-Jul-25 04:33N 49°09' W 123°02'0 0.0
2015-Jul-25 03:33N 49°09' W 123°02'0 0.0
2015-Jul-25 02:33N 49°09' W 123°02'0 0.0
2015-Jul-25 01:33N 49°09' W 123°02'0 0.0
2015-Jul-25 00:33N 49°09' W 123°02'0 0.0
2015-Jul-24 23:33N 49°09' W 123°02'0 0.0
2015-Jul-24 22:33N 49°09' W 123°02'0 0.0
2015-Jul-24 21:33N 49°09' W 123°02'0 0.0
2015-Jul-24 20:34N 49°09' W 123°02'0 0.0
2015-Jul-24 19:33N 49°09' W 123°02'0 0.0
2015-Jul-24 18:33N 49°09' W 123°02'0 0.0
2015-Jul-24 17:33N 49°09' W 123°02'0 0.1
2015-Jul-24 16:34N 49°09' W 123°02'4 3.7
2015-Jul-24 15:34N 49°07' W 123°07'7 6.9
2015-Jul-24 14:33N 49°06' W 123°18'9 8.9
2015-Jul-24 13:34N 48°58' W 123°19'8 8.2
2015-Jul-24 12:33N 48°49' W 123°21'8 8.5
2015-Jul-24 11:34N 48°41' W 123°24'0 0.0
2015-Jul-24 10:33N 48°41' W 123°24'8 7.7
2015-Jul-24 09:33N 48°49' W 123°21'9 9.0
2015-Jul-24 08:34N 48°57' W 123°19'9 9.3
2015-Jul-24 07:33N 49°07' W 123°17'7 7.0
2015-Jul-24 06:33N 49°07' W 123°06'3 3.3
2015-Jul-24 05:33N 49°09' W 123°02'0 0.0
2015-Jul-24 04:33N 49°09' W 123°02'0 0.0
2015-Jul-24 03:34N 49°09' W 123°02'0 0.0
2015-Jul-24 02:33N 49°09' W 123°02'0 0.0
2015-Jul-24 01:33N 49°09' W 123°02'0 0.0
2015-Jul-24 00:33N 49°09' W 123°02'0 0.0
2015-Jul-23 23:33N 49°09' W 123°02'0 0.0
2015-Jul-23 22:33N 49°09' W 123°02'0 0.0
2015-Jul-23 21:33N 49°09' W 123°02'  
Track history (hours):
 
Tides and Currents Weather Stations Pressure Air Temp Water Temp Dewpoint Dewpoint Depression Visibility Wind Speed Wind Dir Waves Ship Positions

Arctic Taglu

Last reported at 2015-Aug-02 21:33 UTC. Time now 2015-Aug-02 22:26 UTC.
Position N 49°09' W 123°02'.

Length 33 m; draft 6 m.

Type: Tug. MMSI: 316003483.

Date/timePositionNaut miles runAvg speedWind from/ knotsBaromVisibWave heightAir tempDewpointWater temp
2015-Aug-02 21:33N 49°09' W 123°02'0 0.0
2015-Aug-02 20:33N 49°09' W 123°02'0 0.0
2015-Aug-02 19:33N 49°09' W 123°02'0 0.0
2015-Aug-02 18:33N 49°09' W 123°02'0 0.0
2015-Aug-02 17:33N 49°09' W 123°02'0 0.0
2015-Aug-02 16:33N 49°09' W 123°02'0 0.0
2015-Aug-02 15:33N 49°09' W 123°02'0 0.0
2015-Aug-02 14:33N 49°09' W 123°02'0 0.0
2015-Aug-02 13:33N 49°09' W 123°02'0 0.0
2015-Aug-02 12:33N 49°09' W 123°02'0 0.0
2015-Aug-02 11:33N 49°09' W 123°02'0 0.0
2015-Aug-02 10:33N 49°09' W 123°02'0 0.0
2015-Aug-02 09:33N 49°09' W 123°02'0 0.0
2015-Aug-02 08:33N 49°09' W 123°02'0 0.0
2015-Aug-02 07:33N 49°09' W 123°02'0 0.0
2015-Aug-02 06:33N 49°09' W 123°02'0 0.0
2015-Aug-02 05:33N 49°09' W 123°02'0 0.0
2015-Aug-02 04:33N 49°09' W 123°02'0 0.0
2015-Aug-02 03:33N 49°09' W 123°02'0 0.0
2015-Aug-02 02:33N 49°09' W 123°02'0 0.0
2015-Aug-02 01:33N 49°09' W 123°02'0 0.0
2015-Aug-02 00:33N 49°09' W 123°02'0 0.0
2015-Aug-01 23:33N 49°09' W 123°02'0 0.0
2015-Aug-01 22:33N 49°09' W 123°02'0 0.0
2015-Aug-01 21:33N 49°09' W 123°02'0 0.0
2015-Aug-01 20:33N 49°09' W 123°02'0 0.0
2015-Aug-01 19:33N 49°09' W 123°02'0 0.0
2015-Aug-01 18:33N 49°09' W 123°02'0 0.0
2015-Aug-01 17:33N 49°09' W 123°02'0 0.0
2015-Aug-01 16:33N 49°09' W 123°02'2 1.5
2015-Aug-01 15:33N 49°08' W 123°04'8 7.8
2015-Aug-01 14:33N 49°07' W 123°16'6 6.3
2015-Aug-01 13:33N 49°02' W 123°21'9 8.8
2015-Aug-01 12:33N 48°53' W 123°18'9 8.6
2015-Aug-01 11:33N 48°45' W 123°22'4 3.9
2015-Aug-01 10:33N 48°41' W 123°24'3 3.2
2015-Aug-01 09:33N 48°43' W 123°21'8 8.3
2015-Aug-01 08:34N 48°52' W 123°19'10 9.9
2015-Aug-01 07:33N 49°01' W 123°20'8 8.3
2015-Aug-01 06:33N 49°07' W 123°10'5 5.4
2015-Aug-01 05:33N 49°09' W 123°02'0 0.0
2015-Aug-01 04:33N 49°09' W 123°02'0 0.0
2015-Aug-01 03:33N 49°09' W 123°02'0 0.0
2015-Aug-01 02:33N 49°09' W 123°02'0 0.0
2015-Aug-01 01:33N 49°09' W 123°02'0 0.0
2015-Aug-01 00:33N 49°09' W 123°02'0 0.0
2015-Jul-31 23:33N 49°09' W 123°02'0 0.0
2015-Jul-31 22:33N 49°09' W 123°02'0 0.0
2015-Jul-31 21:33N 49°09' W 123°02'0 0.0
2015-Jul-31 20:33N 49°09' W 123°02'0 0.0
2015-Jul-31 19:33N 49°09' W 123°02'0 0.0
2015-Jul-31 18:33N 49°09' W 123°02'0 0.0
2015-Jul-31 17:33N 49°09' W 123°02'0 0.0
2015-Jul-31 16:33N 49°09' W 123°02'5 4.9
2015-Jul-31 15:33N 49°06' W 123°09'7 6.7
2015-Jul-31 14:33N 49°06' W 123°19'9 8.8
2015-Jul-31 13:33N 48°57' W 123°19'7 6.7
2015-Jul-31 12:33N 48°50' W 123°21'9 9.1
2015-Jul-31 11:33N 48°41' W 123°24'0 0.1
2015-Jul-31 10:33N 48°41' W 123°24'4 3.5
2015-Jul-31 09:33N 48°44' W 123°21'8 8.4
2015-Jul-31 08:33N 48°52' W 123°18'10 9.9
2015-Jul-31 07:33N 49°02' W 123°21'9 9.0
2015-Jul-31 06:33N 49°07' W 123°10'5 5.5
2015-Jul-31 05:33N 49°09' W 123°02'0 0.0
2015-Jul-31 04:33N 49°09' W 123°02'0 0.0
2015-Jul-31 03:33N 49°09' W 123°02'0 0.0
2015-Jul-31 02:33N 49°09' W 123°02'0 0.0
2015-Jul-31 01:33N 49°09' W 123°02'0 0.0
2015-Jul-31 00:33N 49°09' W 123°02'0 0.0
2015-Jul-30 23:33N 49°09' W 123°02'0 0.0
2015-Jul-30 22:33N 49°09' W 123°02'0 0.0
2015-Jul-30 21:33N 49°09' W 123°02'0 0.0
2015-Jul-30 20:33N 49°09' W 123°02'0 0.0
2015-Jul-30 19:33N 49°09' W 123°02'0 0.0
2015-Jul-30 18:33N 49°09' W 123°02'0 0.0
2015-Jul-30 17:33N 49°09' W 123°02'0 0.1
2015-Jul-30 16:33N 49°09' W 123°02'6 5.7
2015-Jul-30 15:33N 49°07' W 123°11'6 5.7
2015-Jul-30 14:33N 49°06' W 123°19'9 9.3
2015-Jul-30 13:33N 48°56' W 123°19'7 6.6
2015-Jul-30 12:33N 48°50' W 123°21'9 8.9
2015-Jul-30 11:34N 48°41' W 123°24'0 0.1
2015-Jul-30 10:33N 48°41' W 123°24'5 4.9
2015-Jul-30 09:33N 48°46' W 123°21'8 7.6
2015-Jul-30 08:33N 48°53' W 123°18'1010.0
2015-Jul-30 07:33N 49°03' W 123°20'9 8.5
2015-Jul-30 06:33N 49°06' W 123°08'5 4.5
2015-Jul-30 05:33N 49°09' W 123°02'0 0.0
2015-Jul-30 04:33N 49°09' W 123°02'0 0.0
2015-Jul-30 03:33N 49°09' W 123°02'0 0.0
2015-Jul-30 02:33N 49°09' W 123°02'0 0.0
2015-Jul-30 01:33N 49°09' W 123°02'0 0.0
2015-Jul-30 00:33N 49°09' W 123°02'0 0.0
2015-Jul-29 23:33N 49°09' W 123°02'0 0.0
2015-Jul-29 22:33N 49°09' W 123°02'0 0.0
2015-Jul-29 21:33N 49°09' W 123°02'0 0.0
2015-Jul-29 20:33N 49°09' W 123°02'0 0.0
2015-Jul-29 19:33N 49°09' W 123°02'0 0.0
2015-Jul-29 18:33N 49°09' W 123°02'0 0.0
2015-Jul-29 17:33N 49°09' W 123°02'1 0.5
2015-Jul-29 16:33N 49°08' W 123°03'5 5.4
2015-Jul-29 15:33N 49°07' W 123°11'6 5.5
2015-Jul-29 14:33N 49°06' W 123°19'9 9.3
2015-Jul-29 13:33N 48°56' W 123°18'7 6.6
2015-Jul-29 12:33N 48°50' W 123°21'9 8.9
2015-Jul-29 11:34N 48°41' W 123°24'0 0.1
2015-Jul-29 10:33N 48°41' W 123°24'3 3.2
2015-Jul-29 09:33N 48°43' W 123°21'9 8.7
2015-Jul-29 08:33N 48°52' W 123°19'10 9.7
2015-Jul-29 07:33N 49°01' W 123°22'9 8.6
2015-Jul-29 06:33N 49°08' W 123°12'7 6.8
2015-Jul-29 05:33N 49°09' W 123°02'0 0.0
2015-Jul-29 04:33N 49°09' W 123°02'0 0.0
2015-Jul-29 03:33N 49°09' W 123°02'0 0.0
2015-Jul-29 02:33N 49°09' W 123°02'0 0.0
2015-Jul-29 01:33N 49°09' W 123°02'0 0.0
2015-Jul-29 00:33N 49°09' W 123°02'0 0.0
2015-Jul-28 23:33N 49°09' W 123°02'0 0.0
2015-Jul-28 22:33N 49°09' W 123°02'0 0.0
2015-Jul-28 21:33N 49°09' W 123°02'0 0.0
2015-Jul-28 20:33N 49°09' W 123°02'0 0.0
2015-Jul-28 19:33N 49°09' W 123°02'0 0.0
2015-Jul-28 18:33N 49°09' W 123°02'0 0.0
2015-Jul-28 17:33N 49°09' W 123°02'0 0.5
2015-Jul-28 16:33N 49°08' W 123°03'6 5.6
2015-Jul-28 15:33N 49°07' W 123°11'5 5.3
2015-Jul-28 14:33N 49°06' W 123°19'9 8.7
2015-Jul-28 13:33N 48°57' W 123°18'7 7.3
2015-Jul-28 12:33N 48°50' W 123°21'9 8.8
2015-Jul-28 11:33N 48°42' W 123°24'0 0.2
2015-Jul-28 10:33N 48°41' W 123°24'4 3.9
2015-Jul-28 09:33N 48°44' W 123°21'9 9.0
2015-Jul-28 08:33N 48°53' W 123°18'10 9.8
2015-Jul-28 07:33N 49°03' W 123°20'8 8.0
2015-Jul-28 06:33N 49°07' W 123°09'5 4.8
2015-Jul-28 05:33N 49°09' W 123°02'0 0.0
2015-Jul-28 04:33N 49°09' W 123°02'0 0.0
2015-Jul-28 03:33N 49°09' W 123°02'0 0.0
2015-Jul-28 02:33N 49°09' W 123°02'0 0.0
2015-Jul-28 01:33N 49°09' W 123°02'0 0.0
2015-Jul-28 00:33N 49°09' W 123°02'0 0.0
2015-Jul-27 23:34N 49°09' W 123°02'0 0.0
2015-Jul-27 22:33N 49°09' W 123°02'0 0.0
2015-Jul-27 21:33N 49°09' W 123°02'0 0.0
2015-Jul-27 20:34N 49°09' W 123°02'0 0.0
2015-Jul-27 19:33N 49°09' W 123°02'0 0.0
2015-Jul-27 18:33N 49°09' W 123°02'0 0.0
2015-Jul-27 17:33N 49°09' W 123°02'0 0.0
2015-Jul-27 16:33N 49°09' W 123°02'0 0.0
2015-Jul-27 15:33N 49°09' W 123°02'0 0.0
2015-Jul-27 14:33N 49°09' W 123°02'0 0.0
2015-Jul-27 13:33N 49°09' W 123°02'0 0.0
2015-Jul-27 12:33N 49°09' W 123°02'0 0.0
2015-Jul-27 11:33N 49°09' W 123°02'0 0.0
2015-Jul-27 10:33N 49°09' W 123°02'0 0.0
2015-Jul-27 09:33N 49°09' W 123°02'0 0.0
2015-Jul-27 08:33N 49°09' W 123°02'0 0.0
2015-Jul-27 07:33N 49°09' W 123°02'0 0.0
2015-Jul-27 06:33N 49°09' W 123°02'0 0.0
2015-Jul-27 05:33N 49°09' W 123°02'0 0.0
2015-Jul-27 04:33N 49°09' W 123°02'0 0.0
2015-Jul-27 03:33N 49°09' W 123°02'0 0.0
2015-Jul-27 02:34N 49°09' W 123°02'0 0.0
2015-Jul-27 01:33N 49°09' W 123°02'0 0.0
2015-Jul-27 00:33N 49°09' W 123°02'0 0.0
2015-Jul-26 23:33N 49°09' W 123°02'0 0.0
2015-Jul-26 22:34N 49°09' W 123°02'0 0.0
2015-Jul-26 21:33N 49°09' W 123°02'0 0.0
2015-Jul-26 20:33N 49°09' W 123°02'0 0.0
2015-Jul-26 19:33N 49°09' W 123°02'0 0.0
2015-Jul-26 18:33N 49°09' W 123°02'0 0.0
2015-Jul-26 17:33N 49°09' W 123°02'0 0.0
2015-Jul-26 16:33N 49°09' W 123°02'0 0.0
2015-Jul-26 15:34N 49°09' W 123°02'0 0.0
2015-Jul-26 14:33N 49°09' W 123°02'0 0.0
2015-Jul-26 13:33N 49°09' W 123°02'0 0.0
2015-Jul-26 12:33N 49°09' W 123°02'0 0.0
2015-Jul-26 11:33N 49°09' W 123°02'0 0.0
2015-Jul-26 10:34N 49°09' W 123°02'0 0.0
2015-Jul-26 09:33N 49°09' W 123°02'0 0.0
2015-Jul-26 08:34N 49°09' W 123°02'0 0.0
2015-Jul-26 07:33N 49°09' W 123°02'0 0.0
2015-Jul-26 06:33N 49°09' W 123°02'0 0.0
2015-Jul-26 05:34N 49°09' W 123°02'0 0.0
2015-Jul-26 04:33N 49°09' W 123°02'0 0.0
2015-Jul-26 03:33N 49°09' W 123°02'0 0.0
2015-Jul-26 02:33N 49°09' W 123°02'0 0.0
2015-Jul-26 01:33N 49°09' W 123°02'0 0.0
2015-Jul-26 00:34N 49°09' W 123°02'0 0.0
2015-Jul-25 23:33N 49°09' W 123°02'0 0.0
2015-Jul-25 22:34N 49°09' W 123°02'0 0.0
2015-Jul-25 21:34N 49°09' W 123°02'0 0.0
2015-Jul-25 20:34N 49°09' W 123°02'0 0.0
2015-Jul-25 19:33N 49°09' W 123°02'0 0.0
2015-Jul-25 18:33N 49°09' W 123°02'0 0.0
2015-Jul-25 17:34N 49°09' W 123°02'0 0.0
2015-Jul-25 16:34N 49°09' W 123°02'6 6.0
2015-Jul-25 15:34N 49°07' W 123°11'6 6.1
2015-Jul-25 14:33N 49°05' W 123°20'9 9.5
2015-Jul-25 13:33N 48°55' W 123°18'8 7.7
2015-Jul-25 12:33N 48°48' W 123°21'7 6.9
2015-Jul-25 11:33N 48°41' W 123°24'0 0.0
2015-Jul-25 10:33N 48°41' W 123°24'6 5.5
2015-Jul-25 09:33N 48°46' W 123°21'9 9.1
2015-Jul-25 08:34N 48°55' W 123°18'10 9.9
2015-Jul-25 07:33N 49°05' W 123°20'9 9.0
2015-Jul-25 06:33N 49°07' W 123°06'3 3.4
2015-Jul-25 05:33N 49°09' W 123°02'0 0.0
2015-Jul-25 04:33N 49°09' W 123°02'0 0.0
2015-Jul-25 03:33N 49°09' W 123°02'0 0.0
2015-Jul-25 02:33N 49°09' W 123°02'0 0.0
2015-Jul-25 01:33N 49°09' W 123°02'0 0.0
2015-Jul-25 00:33N 49°09' W 123°02'0 0.0
2015-Jul-24 23:33N 49°09' W 123°02'0 0.0
2015-Jul-24 22:33N 49°09' W 123°02'0 0.0
2015-Jul-24 21:33N 49°09' W 123°02'0 0.0
2015-Jul-24 20:34N 49°09' W 123°02'0 0.0
2015-Jul-24 19:33N 49°09' W 123°02'0 0.0
2015-Jul-24 18:33N 49°09' W 123°02'0 0.0
2015-Jul-24 17:33N 49°09' W 123°02'0 0.1
2015-Jul-24 16:34N 49°09' W 123°02'4 3.7
2015-Jul-24 15:34N 49°07' W 123°07'7 6.9
2015-Jul-24 14:33N 49°06' W 123°18'9 8.9
2015-Jul-24 13:34N 48°58' W 123°19'8 8.2
2015-Jul-24 12:33N 48°49' W 123°21'8 8.5
2015-Jul-24 11:34N 48°41' W 123°24'0 0.0
2015-Jul-24 10:33N 48°41' W 123°24'8 7.7
2015-Jul-24 09:33N 48°49' W 123°21'9 9.0
2015-Jul-24 08:34N 48°57' W 123°19'9 9.3
2015-Jul-24 07:33N 49°07' W 123°17'7 7.0
2015-Jul-24 06:33N 49°07' W 123°06'3 3.3
2015-Jul-24 05:33N 49°09' W 123°02'0 0.0
2015-Jul-24 04:33N 49°09' W 123°02'0 0.0
2015-Jul-24 03:34N 49°09' W 123°02'0 0.0
2015-Jul-24 02:33N 49°09' W 123°02'0 0.0
2015-Jul-24 01:33N 49°09' W 123°02'0 0.0
2015-Jul-24 00:33N 49°09' W 123°02'0 0.0
2015-Jul-23 23:33N 49°09' W 123°02'0 0.0
2015-Jul-23 22:33N 49°09' W 123°02'0 0.0
2015-Jul-23 21:33N 49°09' W 123°02'  

Dump ship's entire track history